Manchester, MI (48158)

5:23 AM EST on February 12, 2016 (GMT -0500)
Chuck's House | | Change Station
CLOSE
Current Station
Personal Weather Station
Location: Manchester, MI
Elevation: 899 ft
Nearby Weather Stations

Elev 899 ft 42.15 °N, 84.03 °W | Updated 11 minutes ago

Partly Cloudy
Partly Cloudy
12.8 °F
Feels Like 13 °F
N
2.0
Wind Variable Wind from WSW

Today
High -- | Low -- °F
--% Chance of Precip.
Yesterday
High -- | Low -- °F
Precip. -- in
Pressure 30.16 in
Visibility 10.0 miles
Clouds Few 12000 ft
Windchill 13 °F
Dew Point 9 °F
Humidity 83%
Rainfall 0.00 in
Snow Depth Not available.
7:36 AM 6:04 PM
Waxing Crescent, 19% visible
METAR KARB 120953Z AUTO 24004KT 10SM FEW120 M13/M15 A3011 RMK AO2 SLP213 T11281150 TSNO
Pressure 30.16 in
Visibility 10.0 miles
Clouds Few 12000 ft
Windchill 13 °F
Dew Point 9 °F
Humidity 83%
Rainfall 0.00 in
Snow Depth Not available.
7:36 AM 6:04 PM
Waxing Crescent, 19% visible
METAR KARB 120953Z AUTO 24004KT 10SM FEW120 M13/M15 A3011 RMK AO2 SLP213 T11281150 TSNO

10-Day Weather Forecast

Almanac

Astronomy

Feb. 12, 2016 Rise Set
Actual Time
Civil Twilight
Nautical Twilight
Astronomical Twilight
Moon
Length of Visible Light
Length of Day
Tomorrow will be .
, % of the Moon is Illuminated

Today's Extremes

State Highs State Lows

Community

WunderPhotos

Upload Photos

1,892,289 photos uploaded!

WunderBlog® & News

Nearby

Air Quality

  Air Quality AQ Index Pollutant
Not available.

Snow Depth

Station Depth Elevation

Earthquake Activity

City Distance Mag. Time & Date
Minimum magnitude displayed is 2.5.

Coastal Water Temperatures

Place Temperature

Stations

Nearby Weather Stations

Station Location Temp. Windchill Dew Point Humidity Wind Precip. Elev Updated Type
                   

Watches & Warnings

There are currently no watches in effect.